Toledo, Ohio
Current Conditions -  °F | °C
As of 12:53 PM on Thursday 29 Jan 2015 (Local Time) from KTDZ Reporting Station
Light Rain Light Rain  
Wind Chill: 31°   Ceiling: 2900
Heat Index: 38°   Visibility: 10mi
Dew Point: 31°   Wind: 10mph
Humidity: 76%   Direction: 230°SW
Pressure: 29.72"   Gusts: NA
Location:  41.65°N, 83.54°W
Report Text: KTDZ 291753Z AUTO 23009KT 10SM -RA OVC029 03/M01 A2972 RMK AO2 RAB38 SLP071 P0000 60000 T00331006 10039 20000 56013 TSNO
Loading
Personal Weather Stations






























Interactive Weather Map New forecast layout! Learn more

10-Day Weather Forecast

Advertisements
Track Severe Weather on mobile